Dauphin Barker Airport
CYDN : now visible

Airfield :











YOU CAN JOIN US ON...

 
LOGIN :

Register | Disclaimer

   EN    FR    IT 

 









Legend :    VFR   Marginal VFR   IFR   Intensive IFR   Very Intensive IFR
Visi :
Ceiling :
>= 8 km
>= 3000ft
5 to 8 km
1000 to 3000 ft
1500m to 5 km
500 to 1000 ft
800 to 1500m
200 to 500 ft
< 800m
< 200 ft
Symbols :   Thunderstorms  Fog  Heavy snow  Heavy precipitations  Wind > 20 kt






- Airport Elevation : 999 ft
- IATA code : YDN


CYDN - Dauphin Barker

CURRENT METAR :
  • 032100Z AUTO 08008KT 9SM FEW120 23/14 A2994 RMK SLP142 DENSITY ALT 2200FT

EXPIRED METARs :
  • 032000Z AUTO 06011KT 9SM FEW046 BKN130 24/14 A2994 RMK SLP143 DENSITY ALT 2300FT
  • 031900Z AUTO 04005KT 310V060 9SM BKN043 23/13 A2994 RMK SLP144 DENSITY ALT 2200FT

TAF TAF CYDN
Valid from the 03 at 18:00 until the 04 at 06:00 UTC


031740Z 0318/0406 VRB03KT P6SM FEW060
BECMG 0322/0324 12010KT RMK FCST BASED ON AUTO OBS. NXT FCST BY 040000Z
CZWG FIR / North America



MET'MAP, your aeronautical weather chart ! - Copyright ORBIFLY December 2007 - Disclaimer

ORBIFLY MET'MAP TEAM :

Programming & Development : Alexandra Zaïnal
Original concept : Baudouin d'Aumeries
Technical & hardware support : Manuel Goepfert
Assistance : Marc-Olivier Méhu




SOURCES & CREDITS :

   NOAA       Earth
Advisory